Time;durP1;ratioP1;P1;durP2;ratioP2;P2;SDS_P1;SDS_P2;PMS_P1;PMS_P2;Temp;Humidity;BMP_temperature;BMP_pressure;BME280_temperature;BME280_humidity;BME280_pressure;Samples;Min_cycle;Max_cycle;Signal;HPM_P1;HPM_P2
2024/02/12 00:01:41;;;;;;;;;;;;;;;10.04;92.91;99165.03;4982093;28;19918;-87
2024/02/12 00:04:33;;;;;;;;;;;;;;;10.35;91.93;99168.94;4995712;28;19917;-87
2024/02/12 00:07:25;;;;;;;;;;;;;;;10.29;90.48;99179.25;4981529;28;19934;-87
2024/02/12 00:10:17;;;;;;;;;;;;;;;9.98;91.73;99180.00;4970613;28;19918;-87
2024/02/12 00:13:09;;;;;;;;;;;;;;;9.82;92.27;99190.84;4981262;28;19925;-87
2024/02/12 00:15:59;;;;;;;;;;;;;;;10.14;91.32;99197.09;4996892;28;19924;-87
2024/02/12 00:18:51;;;;;;;;;;;;;;;10.20;91.07;99193.03;4997132;28;19917;-87
2024/02/12 00:21:43;;;;;;;;;;;;;;;10.36;90.39;99203.13;5001042;28;19918;-87
2024/02/12 00:24:35;;;;;;;;;;;;;;;10.21;90.01;99200.00;5000698;28;19918;-87
2024/02/12 00:27:29;;;;;;;;;;;;;;;10.24;90.21;99202.06;5000521;28;19921;-87
2024/02/12 00:30:21;;;;;;;;;;;;;;;10.31;90.46;99215.00;4974630;28;20387;-87
2024/02/12 00:33:13;;;;;;;;;;;;;;;10.34;90.42;99216.25;4991043;28;19918;-86
2024/02/12 00:36:12;;;;;;;;;;;;;;;10.39;90.47;99213.28;4993606;28;21657;-87
2024/02/12 00:39:04;;;;;;;;;;;;;;;10.40;90.27;99212.13;4997356;28;20415;-86
2024/02/12 00:41:56;;;;;;;;;;;;;;;10.55;89.52;99214.06;5000333;28;19918;-88
2024/02/12 00:44:48;;;;;;;;;;;;;;;10.47;88.99;99215.00;5000265;28;19918;-87
2024/02/12 00:47:40;;;;;;;;;;;;;;;10.40;89.44;99212.94;5000020;28;19929;-87
2024/02/12 00:50:32;;;;;;;;;;;;;;;10.42;90.19;99226.94;4993893;28;19922;-88
2024/02/12 00:53:29;;;;;;;;;;;;;;;10.37;89.46;99231.84;4992641;28;19922;-86
2024/02/12 00:56:21;;;;;;;;;;;;;;;10.48;89.21;99230.97;4985887;28;20391;-86
2024/02/12 00:59:13;;;;;;;;;;;;;;;10.04;90.35;99238.34;4983233;28;19918;-86
2024/02/12 01:02:04;;;;;;;;;;;;;;;9.93;91.66;99240.00;4980703;28;19918;-85
2024/02/12 01:04:55;;;;;;;;;;;;;;;10.14;91.26;99254.16;4980508;28;19918;-85
2024/02/12 01:07:47;;;;;;;;;;;;;;;10.22;90.51;99255.94;4993852;28;19922;-86
2024/02/12 01:10:35;;;;;;;;;;;;;;;10.10;90.15;99255.97;5000161;28;19918;-87
2024/02/12 01:13:27;;;;;;;;;;;;;;;9.90;91.23;99256.97;4980801;28;19918;-86
2024/02/12 01:16:21;;;;;;;;;;;;;;;9.78;91.93;99257.03;4992437;28;19917;-87
2024/02/12 01:19:13;;;;;;;;;;;;;;;9.74;92.42;99261.56;4996752;28;19918;-86
2024/02/12 01:22:06;;;;;;;;;;;;;;;9.92;92.54;99257.41;4994377;28;20391;-86
2024/02/12 01:24:59;;;;;;;;;;;;;;;9.89;91.87;99260.84;4993748;28;19918;-87
2024/02/12 01:28:18;;;;;;;;;;;;;;;9.77;92.61;99260.88;5000332;28;20379;-86
2024/02/12 01:31:26;;;;;;;;;;;;;;;9.93;92.83;99269.84;5033303;23;19929;-86
2024/02/12 01:34:17;;;;;;;;;;;;;;;9.89;91.55;99271.69;5020205;28;19932;-86
2024/02/12 01:40:59;;;;;;;;;;;;;;;9.77;92.44;99269.81;4984265;23;19927;-86
2024/02/12 01:43:58;;;;;;;;;;;;;;;9.62;93.23;99269.75;5056017;23;19926;-86
2024/02/12 01:46:49;;;;;;;;;;;;;;;9.66;94.06;99273.34;4980794;28;19926;-87
2024/02/12 02:02:08;;;;;;;;;;;;;;;10.17;89.52;99275.19;5038135;23;19926;-87
2024/02/12 02:05:00;;;;;;;;;;;;;;;10.13;89.53;99281.66;4997006;28;19926;-86
2024/02/12 02:07:53;;;;;;;;;;;;;;;9.95;90.10;99283.91;5018861;28;19921;-87
2024/02/12 02:10:48;;;;;;;;;;;;;;;9.92;90.39;99272.91;4995125;28;19917;-85
2024/02/12 02:14:03;;;;;;;;;;;;;;;9.77;91.60;99274.44;4999638;28;19918;-86
2024/02/12 02:17:16;;;;;;;;;;;;;;;9.83;91.23;99278.50;4980094;28;19918;-87
2024/02/12 02:27:10;;;;;;;;;;;;;;;9.55;91.80;99288.56;5063793;23;19929;-86
2024/02/12 02:30:01;;;;;;;;;;;;;;;9.47;92.88;99286.75;4980374;28;19949;-86
2024/02/12 02:32:53;;;;;;;;;;;;;;;9.58;93.00;99287.84;4983594;28;20303;-87
2024/02/12 03:00:46;;;;;;;;;;;;;;;9.96;88.10;99307.16;5085178;23;19925;-87
2024/02/12 03:07:09;;;;;;;;;;;;;;;9.90;89.09;99318.63;5108242;23;19925;-87
2024/02/12 03:22:00;;;;;;;;;;;;;;;9.72;88.57;99323.53;5040079;23;19926;-88
2024/02/12 03:28:25;;;;;;;;;;;;;;;9.55;88.49;99324.59;5125558;23;19926;-86
2024/02/12 03:31:20;;;;;;;;;;;;;;;9.59;88.20;99324.72;4996214;28;19933;-86
2024/02/12 06:46:34;;;;;;;;;;;;;;;8.63;82.46;99549.28;5921768;23;19926;-80
2024/02/12 06:49:26;;;;;;;;;;;;;;;7.89;84.75;99557.97;4997591;28;19930;-79
2024/02/12 06:52:18;;;;;;;;;;;;;;;7.68;86.56;99562.53;4998992;28;21856;-79
2024/02/12 06:55:11;;;;;;;;;;;;;;;7.56;87.88;99557.81;5001700;28;19921;-80
2024/02/12 06:58:02;;;;;;;;;;;;;;;7.57;87.70;99562.06;5001171;28;19921;-79
2024/02/12 07:00:54;;;;;;;;;;;;;;;7.56;86.86;99565.13;4999149;28;19917;-79
2024/02/12 07:04:01;;;;;;;;;;;;;;;7.33;87.81;99578.06;5016670;28;19932;-81
2024/02/12 07:06:51;;;;;;;;;;;;;;;7.39;88.78;99576.78;5049615;23;19932;-81
2024/02/12 07:09:41;;;;;;;;;;;;;;;7.37;88.46;99580.91;5012314;28;19933;-82
2024/02/12 07:12:38;;;;;;;;;;;;;;;7.32;88.61;99576.47;5030719;28;19910;-83
2024/02/12 07:15:23;;;;;;;;;;;;;;;7.40;89.06;99578.38;5030132;28;19916;-82
2024/02/12 07:18:08;;;;;;;;;;;;;;;7.48;88.26;99582.16;5003057;28;19926;-81
2024/02/12 07:20:53;;;;;;;;;;;;;;;7.45;89.05;99590.94;5001159;28;19926;-81
2024/02/12 07:23:40;;;;;;;;;;;;;;;7.44;89.44;99595.53;5001664;28;19917;-81
2024/02/12 07:26:27;;;;;;;;;;;;;;;7.52;89.06;99593.91;5005391;28;19918;-81
2024/02/12 07:29:12;;;;;;;;;;;;;;;7.65;88.96;99601.84;5010704;28;19930;-81
2024/02/12 07:31:59;;;;;;;;;;;;;;;7.65;88.74;99601.06;5005844;28;19926;-80
2024/02/12 07:34:47;;;;;;;;;;;;;;;7.82;88.25;99597.50;5015667;28;20319;-82
2024/02/12 07:37:41;;;;;;;;;;;;;;;8.00;86.96;99605.22;5008144;28;19916;-80
2024/02/12 07:40:32;;;;;;;;;;;;;;;8.13;86.44;99608.81;5008822;28;19925;-82
2024/02/12 07:43:24;;;;;;;;;;;;;;;8.28;85.18;99613.69;5015905;28;19910;-81
2024/02/12 07:46:14;;;;;;;;;;;;;;;8.44;84.19;99614.75;5011395;28;19929;-81
2024/02/12 07:49:04;;;;;;;;;;;;;;;8.66;83.94;99612.84;5011842;28;19922;-81
2024/02/12 07:51:51;;;;;;;;;;;;;;;8.76;83.31;99607.06;5011887;28;19929;-80
2024/02/12 07:54:43;;;;;;;;;;;;;;;8.98;83.19;99618.38;5001911;28;19926;-81
2024/02/12 07:57:34;;;;;;;;;;;;;;;9.25;82.37;99618.91;4995739;28;19918;-80
2024/02/12 08:00:23;;;;;;;;;;;;;;;9.67;80.67;99614.19;5004316;28;19934;-80
2024/02/12 08:03:18;;;;;;;;;;;;;;;10.09;78.99;99615.63;5007233;28;19905;-82
2024/02/12 08:06:13;;;;;;;;;;;;;;;10.36;77.43;99619.66;5003521;28;19922;-80
2024/02/12 08:09:08;;;;;;;;;;;;;;;10.61;77.05;99625.84;5019488;28;19906;-81
2024/02/12 08:12:19;;;;;;;;;;;;;;;10.90;76.70;99622.84;5019349;28;19930;-82
2024/02/12 08:15:31;;;;;;;;;;;;;;;10.99;76.00;99618.06;5018100;28;19910;-82
2024/02/12 08:18:45;;;;;;;;;;;;;;;10.88;75.43;99629.75;5004011;28;19926;-82
2024/02/12 08:22:27;;;;;;;;;;;;;;;11.11;75.53;99634.34;5024336;28;19914;-82
2024/02/12 08:25:38;;;;;;;;;;;;;;;11.68;72.88;99635.94;4988847;28;19926;-83
2024/02/12 08:28:30;;;;;;;;;;;;;;;12.00;71.81;99637.56;4994454;28;19922;-83
2024/02/12 08:31:22;;;;;;;;;;;;;;;12.28;70.82;99642.16;5006818;28;19917;-82
2024/02/12 08:34:14;;;;;;;;;;;;;;;12.51;69.32;99647.75;5004668;28;19929;-82
2024/02/12 08:37:03;;;;;;;;;;;;;;;12.73;69.32;99655.28;4999673;28;19922;-83
2024/02/12 08:39:55;;;;;;;;;;;;;;;12.93;67.82;99656.09;4990498;28;19918;-85
2024/02/12 08:42:48;;;;;;;;;;;;;;;13.03;67.18;99656.34;4991513;28;19918;-83
2024/02/12 08:45:39;;;;;;;;;;;;;;;13.31;66.60;99653.44;4994186;28;20382;-83
2024/02/12 08:48:31;;;;;;;;;;;;;;;13.37;65.95;99652.00;4992368;28;19922;-84
2024/02/12 08:51:23;;;;;;;;;;;;;;;13.54;65.59;99659.78;4998876;28;19918;-84
2024/02/12 08:54:13;;;;;;;;;;;;;;;13.74;65.24;99657.81;4996811;28;19917;-84
2024/02/12 08:57:03;;;;;;;;;;;;;;;13.83;65.31;99660.28;4995119;28;20298;-85
2024/02/12 08:59:52;;;;;;;;;;;;;;;13.96;64.18;99664.47;4992876;28;19918;-84
2024/02/12 09:02:44;;;;;;;;;;;;;;;14.06;63.84;99664.66;4996364;28;20702;-85
2024/02/12 09:05:36;;;;;;;;;;;;;;;14.23;63.43;99668.03;4990077;28;19917;-83
2024/02/12 09:08:28;;;;;;;;;;;;;;;14.46;62.79;99672.38;4986765;28;19922;-82
2024/02/12 09:11:20;;;;;;;;;;;;;;;14.63;63.19;99670.28;4993629;28;20412;-82
2024/02/12 09:14:12;;;;;;;;;;;;;;;14.91;61.79;99681.66;4991616;28;19925;-82
2024/02/12 09:17:04;;;;;;;;;;;;;;;14.81;60.31;99674.88;4992293;28;19922;-82
2024/02/12 09:19:54;;;;;;;;;;;;;;;14.82;59.99;99676.44;4986638;28;19921;-82
2024/02/12 09:22:41;;;;;;;;;;;;;;;14.78;60.39;99672.09;4980365;28;20387;-82
2024/02/12 09:25:32;;;;;;;;;;;;;;;14.64;60.18;99671.84;4984488;28;19922;-82
2024/02/12 09:28:24;;;;;;;;;;;;;;;14.72;58.88;99671.59;4992544;28;19922;-81
2024/02/12 09:31:14;;;;;;;;;;;;;;;14.92;56.71;99672.28;4996587;28;19917;-82
2024/02/12 09:34:06;;;;;;;;;;;;;;;15.13;57.03;99677.28;4996949;28;19921;-82
2024/02/12 09:36:55;;;;;;;;;;;;;;;15.13;58.59;99674.53;4996978;28;19922;-81
2024/02/12 09:39:42;;;;;;;;;;;;;;;15.13;56.58;99688.22;4984911;28;19922;-81
2024/02/12 09:42:34;;;;;;;;;;;;;;;15.07;56.34;99685.00;5000689;28;19917;-81
2024/02/12 09:45:28;;;;;;;;;;;;;;;15.34;56.00;99680.25;5000039;28;19918;-83
2024/02/12 09:48:20;;;;;;;;;;;;;;;15.58;54.18;99693.53;4997578;28;19922;-83
2024/02/12 09:51:14;;;;;;;;;;;;;;;15.96;51.79;99692.38;4999467;28;19921;-82
2024/02/12 09:54:06;;;;;;;;;;;;;;;16.27;52.89;99699.34;4999251;28;20410;-82
2024/02/12 09:56:58;;;;;;;;;;;;;;;16.26;51.96;99706.00;4994593;28;19918;-83
2024/02/12 09:59:47;;;;;;;;;;;;;;;16.31;52.23;99704.84;4993068;28;20000;-82
2024/02/12 10:02:38;;;;;;;;;;;;;;;15.94;54.08;99715.88;4994556;28;19918;-81
2024/02/12 10:05:31;;;;;;;;;;;;;;;15.57;54.98;99713.88;4999977;28;19918;-82
2024/02/12 10:08:28;;;;;;;;;;;;;;;15.52;54.77;99714.19;4994619;28;19921;-84
2024/02/12 10:11:24;;;;;;;;;;;;;;;15.76;53.08;99710.16;4975047;28;19917;-85
2024/02/12 10:14:13;;;;;;;;;;;;;;;15.79;53.89;99714.94;4988961;28;20406;-81
2024/02/12 10:17:05;;;;;;;;;;;;;;;15.85;52.70;99713.41;4997499;28;19918;-86
2024/02/12 10:19:55;;;;;;;;;;;;;;;21.38;40.46;99719.13;4989263;28;19937;-82
2024/02/12 10:22:44;;;;;;;;;;;;;;;27.05;29.89;99729.38;4996441;28;19922;-81
2024/02/12 10:25:39;;;;;;;;;;;;;;;29.83;25.86;99737.47;5003305;28;19918;-83
2024/02/12 10:28:31;;;;;;;;;;;;;;;31.97;23.83;99738.34;5000001;28;19922;-84
2024/02/12 10:31:18;;;;;;;;;;;;;;;33.76;20.40;99745.22;5004473;28;19917;-84
2024/02/12 10:34:11;;;;;;;;;;;;;;;34.59;18.53;99736.63;4998521;28;19918;-84
2024/02/12 10:37:06;;;;;;;;;;;;;;;32.97;19.71;99736.28;4992066;28;20419;-82
2024/02/12 10:39:55;;;;;;;;;;;;;;;30.76;21.97;99729.81;4988199;28;19917;-85
2024/02/12 10:42:51;;;;;;;;;;;;;;;31.90;21.53;99732.34;5001159;28;20475;-84
2024/02/12 10:45:47;;;;;;;;;;;;;;;32.26;20.32;99735.53;4995670;28;19921;-83
2024/02/12 10:48:42;;;;;;;;;;;;;;;30.34;21.68;99718.63;4991635;28;19922;-85
2024/02/12 10:51:34;;;;;;;;;;;;;;;29.58;23.38;99733.00;4991303;28;19922;-83
2024/02/12 10:54:28;;;;;;;;;;;;;;;31.29;21.68;99737.59;5004122;28;20310;-82
2024/02/12 10:57:20;;;;;;;;;;;;;;;31.75;20.51;99729.50;4991042;28;19922;-83
2024/02/12 11:00:18;;;;;;;;;;;;;;;34.27;18.45;99737.97;4996357;28;19922;-84
2024/02/12 11:03:08;;;;;;;;;;;;;;;32.96;19.62;99731.94;4994807;28;19921;-83
2024/02/12 11:06:00;;;;;;;;;;;;;;;35.16;17.62;99730.00;4997615;28;19918;-84
2024/02/12 11:08:56;;;;;;;;;;;;;;;36.11;17.17;99736.66;4994631;28;19926;-86
2024/02/12 11:11:48;;;;;;;;;;;;;;;36.23;16.38;99732.56;4998776;28;19921;-86
2024/02/12 11:14:41;;;;;;;;;;;;;;;37.43;15.17;99734.03;5014446;28;19918;-85
2024/02/12 11:17:33;;;;;;;;;;;;;;;35.52;16.07;99723.44;5003985;28;19926;-86
2024/02/12 11:20:25;;;;;;;;;;;;;;;37.34;15.13;99725.03;5008873;28;19922;-86
2024/02/12 11:23:20;;;;;;;;;;;;;;;34.08;17.08;99705.72;4999846;28;19918;-86
2024/02/12 11:26:18;;;;;;;;;;;;;;;31.00;20.77;99710.16;5006453;28;19918;-85
2024/02/12 11:29:10;;;;;;;;;;;;;;;32.19;20.10;99704.97;5002994;28;20311;-87
2024/02/12 11:32:02;;;;;;;;;;;;;;;35.69;17.31;99708.59;4994371;28;19918;-84
2024/02/12 11:34:54;;;;;;;;;;;;;;;35.42;17.81;99705.16;4991894;28;19922;-85
2024/02/12 11:37:46;;;;;;;;;;;;;;;36.95;16.06;99700.44;5003122;28;19922;-87
2024/02/12 11:40:39;;;;;;;;;;;;;;;38.31;14.49;99700.56;4998943;28;19923;-88
2024/02/12 11:43:31;;;;;;;;;;;;;;;33.53;18.35;99698.28;4999393;28;19925;-87
2024/02/12 11:46:24;;;;;;;;;;;;;;;34.63;17.99;99699.69;5000807;28;19926;-88
2024/02/12 11:49:16;;;;;;;;;;;;;;;30.22;21.28;99682.38;4998858;28;19922;-87
2024/02/12 11:52:03;;;;;;;;;;;;;;;30.61;21.94;99689.69;5000463;28;19918;-86
2024/02/12 11:54:53;;;;;;;;;;;;;;;30.84;21.45;99680.47;5002599;28;20358;-86
2024/02/12 11:57:45;;;;;;;;;;;;;;;31.61;20.14;99686.09;5000120;28;20299;-85
2024/02/12 12:00:37;;;;;;;;;;;;;;;27.49;25.07;99677.16;4997437;28;19922;-86
2024/02/12 12:03:29;;;;;;;;;;;;;;;29.22;23.17;99677.75;4998663;28;19948;-84
2024/02/12 12:06:21;;;;;;;;;;;;;;;30.10;21.61;99679.31;5004921;28;20387;-86
2024/02/12 12:09:08;;;;;;;;;;;;;;;31.76;19.98;99680.44;5002073;28;19941;-86
2024/02/12 12:12:00;;;;;;;;;;;;;;;31.43;20.24;99684.22;4991311;28;19918;-86
2024/02/12 12:14:52;;;;;;;;;;;;;;;33.49;18.76;99681.59;4993304;28;19922;-86
2024/02/12 12:17:43;;;;;;;;;;;;;;;28.15;23.61;99675.84;4991086;28;19921;-85
2024/02/12 12:20:33;;;;;;;;;;;;;;;27.23;24.44;99679.28;4995885;28;19918;-84
2024/02/12 12:23:25;;;;;;;;;;;;;;;26.73;25.66;99674.63;4984298;28;20978;-86
2024/02/12 12:26:17;;;;;;;;;;;;;;;25.56;27.56;99667.19;4996774;28;20377;-85
2024/02/12 12:29:09;;;;;;;;;;;;;;;27.34;25.44;99670.53;4993948;28;19922;-84
2024/02/12 12:31:59;;;;;;;;;;;;;;;25.11;27.95;99670.81;4993545;28;19918;-85
2024/02/12 12:34:51;;;;;;;;;;;;;;;25.20;27.65;99667.38;4991788;28;19921;-85
2024/02/12 12:37:43;;;;;;;;;;;;;;;28.12;24.41;99676.78;4999795;28;19917;-86
2024/02/12 12:40:35;;;;;;;;;;;;;;;28.98;22.23;99674.03;4993446;28;19918;-85
2024/02/12 12:43:27;;;;;;;;;;;;;;;26.86;24.85;99678.19;4979958;28;19918;-85
2024/02/12 12:46:19;;;;;;;;;;;;;;;29.82;21.24;99680.63;5000661;28;20320;-85
2024/02/12 12:49:08;;;;;;;;;;;;;;;32.58;19.04;99687.88;4997888;28;19925;-84
2024/02/12 12:52:00;;;;;;;;;;;;;;;31.47;20.09;99692.44;4991858;28;19918;-84
2024/02/12 12:54:53;;;;;;;;;;;;;;;27.12;24.28;99676.88;4999242;28;19942;-84
2024/02/12 12:57:43;;;;;;;;;;;;;;;28.75;23.21;99667.03;4990213;28;20295;-84
2024/02/12 13:00:35;;;;;;;;;;;;;;;29.70;22.72;99673.97;4994091;28;19922;-87
2024/02/12 13:03:28;;;;;;;;;;;;;;;23.38;29.89;99666.53;4999206;28;19918;-86
2024/02/12 13:06:23;;;;;;;;;;;;;;;22.31;34.08;99664.88;4987733;28;19922;-87
2024/02/12 13:09:14;;;;;;;;;;;;;;;20.02;37.43;99660.66;4989836;28;19922;-85
2024/02/12 13:12:06;;;;;;;;;;;;;;;19.40;40.01;99666.09;4999685;28;19918;-85
2024/02/12 13:14:58;;;;;;;;;;;;;;;18.76;41.88;99664.28;4999275;28;20097;-87
2024/02/12 13:17:47;;;;;;;;;;;;;;;19.34;40.71;99668.47;5004267;28;19918;-86
2024/02/12 13:20:39;;;;;;;;;;;;;;;18.38;41.67;99662.31;4994438;28;19921;-88
2024/02/12 13:23:28;;;;;;;;;;;;;;;17.40;44.79;99664.44;4993285;28;19918;-87
2024/02/12 13:26:20;;;;;;;;;;;;;;;18.30;43.75;99666.25;4995994;28;19918;-87
2024/02/12 13:29:08;;;;;;;;;;;;;;;17.03;46.44;99664.66;4991391;28;19922;-88
2024/02/12 13:32:02;;;;;;;;;;;;;;;16.67;47.93;99660.88;5004206;28;20378;-87
2024/02/12 13:34:54;;;;;;;;;;;;;;;16.90;47.93;99666.16;4997960;28;19922;-85
2024/02/12 13:37:45;;;;;;;;;;;;;;;16.41;47.32;99665.75;4979499;28;20310;-86
2024/02/12 13:40:34;;;;;;;;;;;;;;;16.74;46.92;99667.59;4994804;28;19917;-87
2024/02/12 13:43:27;;;;;;;;;;;;;;;16.23;48.22;99669.13;4979244;28;19922;-86
2024/02/12 13:46:19;;;;;;;;;;;;;;;16.76;47.77;99673.50;5001273;28;19918;-87
2024/02/12 13:49:11;;;;;;;;;;;;;;;16.55;48.50;99674.13;4996869;28;19922;-87
2024/02/12 13:52:11;;;;;;;;;;;;;;;17.56;45.71;99675.09;4988120;28;19917;-88
2024/02/12 13:55:10;;;;;;;;;;;;;;;23.14;33.75;99674.13;4996229;28;19918;-89
2024/02/12 13:58:02;;;;;;;;;;;;;;;24.01;31.01;99680.28;5010067;28;19918;-88
2024/02/12 14:00:54;;;;;;;;;;;;;;;28.29;24.22;99683.66;5004311;28;20379;-87
2024/02/12 14:03:46;;;;;;;;;;;;;;;28.97;22.62;99687.25;5000259;28;19921;-87
2024/02/12 14:06:35;;;;;;;;;;;;;;;28.35;23.16;99684.59;4996073;28;19921;-87
2024/02/12 14:09:27;;;;;;;;;;;;;;;27.68;23.56;99687.25;4995796;28;19930;-87
2024/02/12 14:12:19;;;;;;;;;;;;;;;30.21;21.02;99694.84;4995421;28;19917;-86
2024/02/12 14:15:09;;;;;;;;;;;;;;;27.87;22.72;99697.28;5004405;28;19917;-88
2024/02/12 14:18:03;;;;;;;;;;;;;;;24.95;26.31;99695.88;4993340;28;19918;-86
2024/02/12 14:20:56;;;;;;;;;;;;;;;21.11;32.23;99694.88;4999063;28;19918;-87
2024/02/12 14:23:49;;;;;;;;;;;;;;;20.85;33.38;99687.25;5005318;28;19918;-87
2024/02/12 14:26:45;;;;;;;;;;;;;;;19.71;35.98;99692.75;4997034;28;19918;-85
2024/02/12 14:29:32;;;;;;;;;;;;;;;19.26;37.07;99700.00;4994142;28;19921;-86
2024/02/12 14:32:21;;;;;;;;;;;;;;;18.78;37.82;99696.94;5000897;28;19921;-87
2024/02/12 14:35:16;;;;;;;;;;;;;;;18.20;38.12;99695.31;4996291;28;19921;-88
2024/02/12 14:38:08;;;;;;;;;;;;;;;18.08;38.78;99703.94;5000595;28;19918;-88
2024/02/12 14:41:00;;;;;;;;;;;;;;;17.77;40.46;99708.22;5003648;28;20395;-87
2024/02/12 14:43:50;;;;;;;;;;;;;;;17.54;40.70;99715.94;4994373;28;19917;-88
2024/02/12 14:46:40;;;;;;;;;;;;;;;17.33;40.60;99710.31;4995923;28;20386;-87
2024/02/12 14:49:30;;;;;;;;;;;;;;;17.04;41.56;99712.13;4997264;28;19922;-86
2024/02/12 14:52:21;;;;;;;;;;;;;;;16.98;41.47;99717.19;4995338;28;19917;-85
2024/02/12 14:55:13;;;;;;;;;;;;;;;16.90;42.75;99717.53;5005222;28;19922;-86
2024/02/12 14:58:03;;;;;;;;;;;;;;;16.83;43.14;99726.50;4996465;28;19918;-87
2024/02/12 15:00:55;;;;;;;;;;;;;;;16.81;42.31;99728.81;4993700;28;19918;-88
2024/02/12 15:03:47;;;;;;;;;;;;;;;16.82;42.33;99727.66;4999967;28;20302;-86
2024/02/12 15:06:39;;;;;;;;;;;;;;;16.71;41.92;99732.28;4993182;28;19918;-87
2024/02/12 15:09:32;;;;;;;;;;;;;;;16.64;42.41;99735.00;4996748;28;19925;-87
2024/02/12 15:12:23;;;;;;;;;;;;;;;16.55;43.09;99738.03;4993116;28;19938;-87
2024/02/12 15:15:12;;;;;;;;;;;;;;;16.44;43.54;99745.38;4993620;28;19918;-87
2024/02/12 15:18:04;;;;;;;;;;;;;;;16.25;44.56;99740.84;4988056;28;20258;-87
2024/02/12 15:20:53;;;;;;;;;;;;;;;16.20;45.19;99741.19;4995919;28;19917;-88
2024/02/12 15:23:40;;;;;;;;;;;;;;;16.06;45.93;99752.03;4974987;28;20295;-88
2024/02/12 15:26:30;;;;;;;;;;;;;;;16.00;46.36;99756.25;4994742;28;19918;-87
2024/02/12 15:29:18;;;;;;;;;;;;;;;16.15;46.22;99752.50;4984164;28;19922;-86
2024/02/12 15:32:07;;;;;;;;;;;;;;;15.99;46.79;99745.69;5005836;28;19918;-86
2024/02/12 15:34:58;;;;;;;;;;;;;;;16.05;48.35;99758.69;4994609;28;19918;-86
2024/02/12 15:37:47;;;;;;;;;;;;;;;15.99;48.72;99751.97;4992297;28;19918;-86
2024/02/12 15:40:40;;;;;;;;;;;;;;;15.93;49.76;99766.38;4991536;28;19919;-87
2024/02/12 15:43:29;;;;;;;;;;;;;;;15.87;50.28;99771.41;4985665;28;20338;-87
2024/02/12 15:46:21;;;;;;;;;;;;;;;15.69;50.33;99778.63;4985693;28;19926;-88
2024/02/12 15:49:08;;;;;;;;;;;;;;;15.44;51.05;99780.22;4999928;28;20387;-86
2024/02/12 15:52:00;;;;;;;;;;;;;;;15.54;50.53;99785.09;5003263;28;19918;-88
2024/02/12 15:54:49;;;;;;;;;;;;;;;15.46;51.11;99783.34;4987319;28;20304;-88
2024/02/12 15:57:39;;;;;;;;;;;;;;;15.43;50.98;99792.31;5002750;28;19918;-87
2024/02/12 16:00:33;;;;;;;;;;;;;;;15.23;51.21;99788.91;5002883;28;19918;-87
2024/02/12 16:03:21;;;;;;;;;;;;;;;15.28;51.41;99796.81;5003453;28;19918;-87
2024/02/12 16:06:13;;;;;;;;;;;;;;;15.15;52.23;99809.13;4995291;28;19918;-89
2024/02/12 16:09:05;;;;;;;;;;;;;;;15.17;51.90;99813.09;4992867;28;19922;-87
2024/02/12 16:11:57;;;;;;;;;;;;;;;15.07;52.50;99819.19;4983365;28;19917;-88
2024/02/12 16:14:52;;;;;;;;;;;;;;;14.92;52.50;99825.59;4997026;28;20331;-87
2024/02/12 16:17:44;;;;;;;;;;;;;;;14.90;53.19;99833.38;5003069;28;19921;-87
2024/02/12 16:20:36;;;;;;;;;;;;;;;14.97;52.90;99845.25;4995634;28;19917;-87
2024/02/12 16:23:27;;;;;;;;;;;;;;;14.74;53.44;99846.38;5000346;28;19918;-86
2024/02/12 16:26:17;;;;;;;;;;;;;;;14.69;53.64;99849.41;4996556;28;19918;-87
2024/02/12 16:29:09;;;;;;;;;;;;;;;14.57;54.21;99864.06;4997677;28;19922;-87
2024/02/12 16:32:04;;;;;;;;;;;;;;;14.51;54.49;99862.78;5000740;28;19917;-87
2024/02/12 16:34:57;;;;;;;;;;;;;;;14.45;54.75;99869.69;4980537;28;19918;-88
2024/02/12 16:37:46;;;;;;;;;;;;;;;14.36;55.35;99871.84;4982980;28;19918;-87
2024/02/12 16:40:36;;;;;;;;;;;;;;;14.38;55.34;99875.81;4998430;28;19919;-88
2024/02/12 16:43:28;;;;;;;;;;;;;;;14.49;55.72;99882.28;4999949;28;19918;-85
2024/02/12 16:46:20;;;;;;;;;;;;;;;14.26;56.19;99889.63;4996582;28;19926;-85
2024/02/12 16:49:12;;;;;;;;;;;;;;;14.13;56.93;99894.41;4988075;28;19926;-84
2024/02/12 16:52:04;;;;;;;;;;;;;;;14.13;56.80;99897.16;4994799;28;19921;-84
2024/02/12 16:54:56;;;;;;;;;;;;;;;14.11;57.13;99902.19;4989756;28;19917;-85
2024/02/12 16:57:51;;;;;;;;;;;;;;;14.01;57.57;99907.44;4991669;28;19918;-86
2024/02/12 17:00:43;;;;;;;;;;;;;;;13.86;58.19;99905.53;4990565;28;19918;-84
2024/02/12 17:03:35;;;;;;;;;;;;;;;13.83;58.57;99906.25;4997976;28;19926;-84
2024/02/12 17:06:24;;;;;;;;;;;;;;;13.79;58.38;99906.16;4989637;28;19918;-84
2024/02/12 17:09:16;;;;;;;;;;;;;;;13.56;59.13;99919.69;4990640;28;19922;-84
2024/02/12 17:12:08;;;;;;;;;;;;;;;13.36;59.84;99925.44;4991560;28;19921;-83
2024/02/12 17:15:00;;;;;;;;;;;;;;;13.22;60.56;99917.69;4995079;28;19918;-84
2024/02/12 17:17:52;;;;;;;;;;;;;;;13.46;60.21;99925.69;4992922;28;19917;-84
2024/02/12 17:20:44;;;;;;;;;;;;;;;13.31;60.36;99923.75;4981984;28;20410;-85
2024/02/12 17:23:36;;;;;;;;;;;;;;;13.78;60.89;99931.09;4995543;28;19918;-84
2024/02/12 17:26:28;;;;;;;;;;;;;;;14.13;60.15;99942.84;4987368;28;19922;-85
2024/02/12 17:29:22;;;;;;;;;;;;;;;14.58;60.58;99946.94;4990680;28;19922;-83
2024/02/12 17:32:12;;;;;;;;;;;;;;;14.97;58.99;99951.22;4991175;28;19922;-85
2024/02/12 17:35:05;;;;;;;;;;;;;;;15.25;58.94;99959.94;4996956;28;19921;-85
2024/02/12 17:37:58;;;;;;;;;;;;;;;15.75;61.62;99966.25;4983888;28;19918;-85
2024/02/12 17:40:49;;;;;;;;;;;;;;;16.30;62.03;99964.75;4985439;28;20321;-84
2024/02/12 17:43:41;;;;;;;;;;;;;;;16.64;62.38;99965.59;4995069;28;19922;-84
2024/02/12 17:46:33;;;;;;;;;;;;;;;17.10;61.77;99972.38;4993229;28;19918;-85
2024/02/12 17:49:25;;;;;;;;;;;;;;;17.49;60.31;99980.19;4988282;28;19923;-85
2024/02/12 17:52:17;;;;;;;;;;;;;;;17.79;59.19;99980.06;4974471;28;19918;-85
2024/02/12 17:55:09;;;;;;;;;;;;;;;18.02;58.15;99988.91;4996569;28;19917;-85
2024/02/12 17:58:01;;;;;;;;;;;;;;;18.18;57.36;99989.41;4985856;28;19922;-85
2024/02/12 18:00:53;;;;;;;;;;;;;;;18.38;56.73;100001.72;4997971;28;19918;-85
2024/02/12 18:03:44;;;;;;;;;;;;;;;18.54;55.99;100003.41;4992019;28;20386;-85
2024/02/12 18:06:36;;;;;;;;;;;;;;;18.69;55.51;100014.06;4978910;28;19918;-85
2024/02/12 18:09:26;;;;;;;;;;;;;;;18.77;55.50;100015.69;4999722;28;19922;-87
2024/02/12 18:12:18;;;;;;;;;;;;;;;18.63;54.02;100012.88;4998245;28;19918;-84
2024/02/12 18:15:08;;;;;;;;;;;;;;;18.48;53.93;100019.47;5004076;28;20298;-83
2024/02/12 18:18:01;;;;;;;;;;;;;;;18.36;54.58;100019.78;4984689;28;19918;-84
2024/02/12 18:20:56;;;;;;;;;;;;;;;18.61;55.43;100022.69;4989970;28;19917;-84
2024/02/12 18:23:48;;;;;;;;;;;;;;;18.83;55.18;100031.84;4999519;28;19918;-83
2024/02/12 18:26:40;;;;;;;;;;;;;;;19.06;55.02;100040.59;4984207;28;19917;-84
2024/02/12 18:29:31;;;;;;;;;;;;;;;19.22;54.55;100041.03;5000572;28;19926;-85
2024/02/12 18:32:23;;;;;;;;;;;;;;;19.38;54.03;100049.75;5004417;28;19918;-84
2024/02/12 18:35:15;;;;;;;;;;;;;;;19.45;53.80;100049.81;4998052;28;20391;-84
2024/02/12 18:38:08;;;;;;;;;;;;;;;19.57;53.57;100063.19;4990730;28;19918;-84
2024/02/12 18:41:00;;;;;;;;;;;;;;;19.53;52.27;100061.63;4993021;28;19918;-83
2024/02/12 18:43:52;;;;;;;;;;;;;;;19.57;53.50;100065.97;4977869;28;19922;-84
2024/02/12 18:46:44;;;;;;;;;;;;;;;19.61;53.50;100058.47;4983530;28;20303;-84
2024/02/12 18:49:36;;;;;;;;;;;;;;;19.64;53.83;100068.75;4980813;28;19921;-84
2024/02/12 18:52:27;;;;;;;;;;;;;;;19.67;53.66;100064.38;4999957;28;20379;-84
2024/02/12 18:55:19;;;;;;;;;;;;;;;19.68;53.56;100065.97;4998295;28;19917;-84
2024/02/12 18:58:11;;;;;;;;;;;;;;;19.75;53.03;100070.72;5002625;28;19918;-84
2024/02/12 19:01:03;;;;;;;;;;;;;;;19.81;52.11;100071.91;4983338;28;19922;-84
2024/02/12 19:03:55;;;;;;;;;;;;;;;19.93;51.69;100079.78;4982974;28;19922;-84
2024/02/12 19:06:47;;;;;;;;;;;;;;;19.97;51.19;100086.09;4982563;28;19918;-84
2024/02/12 19:09:36;;;;;;;;;;;;;;;19.95;50.60;100094.78;4978695;28;19926;-84
2024/02/12 19:12:29;;;;;;;;;;;;;;;17.84;46.17;100090.53;4975591;28;20391;-84
2024/02/12 19:15:21;;;;;;;;;;;;;;;16.87;47.44;100084.31;4993661;28;20294;-84
2024/02/12 19:18:14;;;;;;;;;;;;;;;15.80;50.04;100094.81;4979676;28;19918;-84